Accueil
METAR-TAF:

METAR-TAF

Aéroports :

Oxford, Angleterre

Aéroport d'Oxford Kidlington

latitude: 51-50-13N, longitude: 1-19-12W, altitude: 82 m

Observation

Le bulletin a été fait il y a 27 minutes, à 18:50 UTC
Vent 8 kt de ouest/sud-ouest
Température 10°C
Humidité 62%
Pression 1014 hPa
Visibilité 10 km ou plus
Quelques nuages à une hauteur de 4800 ft

METAR: EGTK 261850Z 24008KT 9999 FEW048 10/03 Q1014

Heure: 20:17 (19:17 UTC)

Prévision

Le bulletin a été fait il y a 2 heures et 11 minutes, à 17:06 UTC
Prévision valable du 26 à 18 UTC au 26 à 22 UTC
Vent 14 kt de ouest/sud-ouest
Visibilité 10 km ou plus
Nuages épars à une hauteur de 4000 ft
Evoluant progressivement
du 26 à 20 UTC au 26 à 22 UTC
Vent 4 kt de direction variable

TAF: EGTK 261706Z 2618/2622 24014KT 9999 SCT040 BECMG 2620/2622 VRB04KT

Observations et prévisions météorologiques de plus de 4000 aéroports (messages METAR et TAF).

Les stations disponibles sont représentées par des disques jaunes et rouges sur la carte.

Passer la souris dessus pour voir le nom de la station.

Cliquer dessus pour voir les observations et prévisions météorologiques.

Pour changer de carte: cliquez sur les boutons verts avec une croix noire pour zoomer, sur le bouton vert avec un tiret pour effectuer un zoom arrière, ou sur les flèches vertes pour les cartes adjacentes.


METAR-TAF: